createdAt,value
2019-04-27T00:00:47.099Z,100714.66
2019-04-27T00:03:17.156Z,100715.95
2019-04-27T00:05:47.234Z,100715.93
2019-04-27T00:08:38.603Z,100715.47
2019-04-27T00:11:10.438Z,100710.70
2019-04-27T00:13:40.688Z,100712.83
2019-04-27T00:16:11.235Z,100716.66
2019-04-27T00:18:49.716Z,100712.80
2019-04-27T00:21:18.686Z,100715.34
2019-04-27T00:23:48.302Z,100708.50
2019-04-27T00:26:16.692Z,100704.22
2019-04-27T00:28:45.163Z,100702.09
2019-04-27T00:31:13.658Z,100693.98
2019-04-27T00:33:43.481Z,100694.83
2019-04-27T00:36:29.884Z,100695.68
2019-04-27T00:39:03.539Z,100689.62
2019-04-27T00:41:33.994Z,100684.09
2019-04-27T00:44:03.441Z,100683.28
2019-04-27T00:46:33.048Z,100681.10
2019-04-27T00:49:01.679Z,100678.52
2019-04-27T00:51:33.225Z,100676.36
2019-04-27T00:54:01.873Z,100676.78
2019-04-27T00:56:44.265Z,100671.64
2019-04-27T00:59:17.008Z,100671.55
2019-04-27T01:01:53.451Z,100676.69
2019-04-27T01:04:26.139Z,100677.95
2019-04-27T01:06:54.634Z,100672.84
2019-04-27T01:09:23.661Z,100671.55
2019-04-27T01:11:53.454Z,100660.86
2019-04-27T01:14:23.087Z,100663.83
2019-04-27T01:16:51.686Z,100655.25
2019-04-27T01:19:20.110Z,100656.91
2019-04-27T01:21:49.655Z,100648.38
2019-04-27T01:24:18.887Z,100651.79
2019-04-27T01:26:52.182Z,100645.80
2019-04-27T01:29:25.177Z,100643.23
2019-04-27T01:31:53.659Z,100638.06
2019-04-27T01:34:22.071Z,100638.05
2019-04-27T01:36:50.528Z,100632.06
2019-04-27T01:39:19.022Z,100631.20
2019-04-27T01:41:49.057Z,100636.70
2019-04-27T01:44:19.258Z,100629.41
2019-04-27T01:46:48.678Z,100631.55
2019-04-27T01:49:19.263Z,100628.59
2019-04-27T01:51:49.259Z,100630.25
2019-04-27T01:54:19.657Z,100632.81
2019-04-27T01:56:49.238Z,100631.95
2019-04-27T01:59:17.810Z,100629.82
2019-04-27T02:01:48.932Z,100620.44
2019-04-27T02:04:33.178Z,100615.75
2019-04-27T02:07:03.521Z,100619.58
2019-04-27T02:09:31.957Z,100618.30
2019-04-27T02:12:02.235Z,100616.55
2019-04-27T02:14:30.679Z,100614.84
2019-04-27T02:16:59.578Z,100615.70
2019-04-27T02:19:29.236Z,100614.77
2019-04-27T02:21:59.770Z,100618.14
2019-04-27T02:24:28.780Z,100621.97
2019-04-27T02:26:58.718Z,100614.69
2019-04-27T02:29:31.481Z,100612.11
2019-04-27T02:32:20.165Z,100609.57
2019-04-27T02:34:52.172Z,100600.63
2019-04-27T02:37:20.662Z,100596.36
2019-04-27T02:39:50.033Z,100591.67
2019-04-27T02:42:20.002Z,100591.67
2019-04-27T02:44:49.457Z,100586.13
2019-04-27T02:47:20.690Z,100585.21
2019-04-27T02:49:50.820Z,100588.63
2019-04-27T02:52:23.248Z,100578.81
2019-04-27T02:54:51.657Z,100582.23
2019-04-27T02:57:20.239Z,100580.94
2019-04-27T02:59:50.303Z,100577.09
2019-04-27T03:02:20.397Z,100576.69
2019-04-27T03:04:49.906Z,100575.34
2019-04-27T03:07:20.038Z,100572.34
2019-04-27T03:09:50.991Z,100568.94
2019-04-27T03:12:20.554Z,100568.05
2019-04-27T03:15:01.832Z,100561.63
2019-04-27T03:17:43.778Z,100556.09
2019-04-27T03:20:30.051Z,100559.94
2019-04-27T03:23:00.406Z,100557.76
2019-04-27T03:25:36.429Z,100552.66
2019-04-27T03:28:10.722Z,100555.64
2019-04-27T03:30:42.239Z,100554.35
2019-04-27T03:33:11.875Z,100545.34
2019-04-27T03:35:42.882Z,100541.11
2019-04-27T03:38:12.467Z,100539.80
2019-04-27T03:40:40.552Z,100537.28
2019-04-27T03:43:11.735Z,100531.66
2019-04-27T03:45:40.361Z,100529.08
2019-04-27T03:48:10.306Z,100525.66
2019-04-27T03:50:50.584Z,100527.82
2019-04-27T03:53:39.739Z,100518.02
2019-04-27T03:56:22.080Z,100514.57
2019-04-27T03:58:55.248Z,100513.73
2019-04-27T04:01:23.651Z,100508.60
2019-04-27T04:03:52.137Z,100503.47
2019-04-27T04:06:20.620Z,100506.91
2019-04-27T04:08:51.639Z,100504.36
2019-04-27T04:11:27.099Z,100498.81
2019-04-27T04:13:57.174Z,100491.09
2019-04-27T04:16:29.524Z,100499.64
2019-04-27T04:19:00.872Z,100503.06
2019-04-27T04:21:29.981Z,100493.67
2019-04-27T04:24:00.928Z,100490.71
2019-04-27T04:26:32.165Z,100488.16
2019-04-27T04:28:59.814Z,100481.36
2019-04-27T04:31:29.811Z,100473.69
2019-04-27T04:33:59.694Z,100472.41
2019-04-27T04:36:30.150Z,100476.64
2019-04-27T04:39:00.501Z,100480.90
2019-04-27T04:41:33.498Z,100479.62
2019-04-27T04:44:06.678Z,100489.02
2019-04-27T04:46:42.742Z,100489.88
2019-04-27T04:49:11.136Z,100486.47
2019-04-27T04:51:40.151Z,100492.44
2019-04-27T04:54:09.495Z,100502.26
2019-04-27T04:56:39.231Z,100498.39
2019-04-27T04:59:09.947Z,100497.55
2019-04-27T05:01:39.942Z,100502.69
2019-04-27T05:04:09.107Z,100502.74
2019-04-27T05:06:38.955Z,100506.58
2019-04-27T05:09:09.257Z,100500.64
2019-04-27T05:11:39.499Z,100498.09
2019-04-27T05:14:09.854Z,100498.53
2019-04-27T05:16:39.053Z,100504.53
2019-04-27T05:19:11.043Z,100499.89
2019-04-27T05:21:38.897Z,100508.44
2019-04-27T05:24:09.417Z,100505.91
2019-04-27T05:26:39.598Z,100501.23
2019-04-27T05:29:09.150Z,100500.44
2019-04-27T05:31:38.819Z,100497.08
2019-04-27T05:34:09.358Z,100499.22
2019-04-27T05:36:41.644Z,100494.97
2019-04-27T05:39:09.718Z,100497.97
2019-04-27T05:41:41.227Z,100491.14
2019-04-27T05:44:12.769Z,100490.29
2019-04-27T05:46:41.705Z,100491.59
2019-04-27T05:49:30.205Z,100489.89
2019-04-27T05:51:59.399Z,100490.36
2019-04-27T05:54:29.423Z,100486.94
2019-04-27T05:56:59.187Z,100479.69
2019-04-27T05:59:29.661Z,100478.42
2019-04-27T06:01:59.301Z,100475.00
2019-04-27T06:04:29.109Z,100477.58
2019-04-27T06:07:00.490Z,100476.72
2019-04-27T06:09:28.973Z,100478.42
2019-04-27T06:11:59.079Z,100477.14
2019-04-27T06:14:29.268Z,100479.70
2019-04-27T06:16:59.586Z,100479.27
2019-04-27T06:19:29.130Z,100472.02
2019-04-27T06:21:59.455Z,100472.42
2019-04-27T06:24:29.609Z,100471.59
2019-04-27T06:26:59.654Z,100467.75
2019-04-27T06:29:29.253Z,100468.19
2019-04-27T06:31:59.366Z,100468.19
2019-04-27T06:34:30.673Z,100469.89
2019-04-27T06:36:59.738Z,100465.17
2019-04-27T06:39:29.811Z,100464.75
2019-04-27T06:41:59.059Z,100470.31
2019-04-27T06:44:29.359Z,100466.02
2019-04-27T06:46:59.133Z,100463.47
2019-04-27T06:49:29.393Z,100463.05
2019-04-27T06:51:58.673Z,100005.20
2019-04-27T06:54:28.913Z,100465.60
2019-04-27T06:56:59.249Z,100456.22
2019-04-27T06:59:28.851Z,100451.53
2019-04-27T07:02:00.530Z,100456.23
2019-04-27T07:04:29.375Z,100456.68
2019-04-27T07:07:01.411Z,100456.25
2019-04-27T07:09:29.496Z,100458.83
2019-04-27T07:11:59.304Z,100460.58
2019-04-27T07:14:29.440Z,100457.16
2019-04-27T07:16:59.134Z,100460.58
2019-04-27T07:19:28.730Z,100455.45
2019-04-27T07:21:57.092Z,100457.19
2019-04-27T07:24:25.501Z,100457.63
2019-04-27T07:26:53.993Z,100455.91
2019-04-27T07:29:23.227Z,100454.63
2019-04-27T07:31:51.766Z,100459.31
2019-04-27T07:34:20.193Z,100458.88
2019-04-27T07:36:49.208Z,100460.11
2019-04-27T07:39:19.199Z,100461.39
2019-04-27T07:41:48.798Z,100461.38
2019-04-27T07:44:31.421Z,100454.55
2019-04-27T07:47:16.210Z,100457.11
2019-04-27T07:49:45.567Z,100447.72
2019-04-27T07:52:14.171Z,100447.77
2019-04-27T07:54:43.126Z,100451.19
2019-04-27T07:57:11.678Z,100441.37
2019-04-27T07:59:41.978Z,100440.11
2019-04-27T08:02:11.019Z,100442.25
2019-04-27T08:04:40.105Z,100443.95
2019-04-27T08:07:09.193Z,100435.84
2019-04-27T08:09:39.627Z,100438.41
2019-04-27T08:12:07.926Z,100428.63
2019-04-27T08:14:36.401Z,100432.06
2019-04-27T08:17:04.886Z,100434.64
2019-04-27T08:19:33.380Z,100423.11
2019-04-27T08:22:02.221Z,100424.81
2019-04-27T08:24:30.654Z,100423.09
2019-04-27T08:27:06.394Z,100426.52
2019-04-27T08:29:36.463Z,100422.23
2019-04-27T08:32:06.684Z,100426.52
2019-04-27T08:34:39.728Z,100428.65
2019-04-27T08:37:09.125Z,100420.52
2019-04-27T08:39:39.487Z,100424.79
2019-04-27T08:42:09.507Z,100417.06
2019-04-27T08:44:39.738Z,100425.17
2019-04-27T08:47:09.561Z,100411.01
2019-04-27T08:49:39.394Z,100433.29
2019-04-27T08:52:09.362Z,100430.78
2019-04-27T08:54:39.399Z,100419.73
2019-04-27T08:57:09.677Z,100421.02
2019-04-27T08:59:39.294Z,100418.45
2019-04-27T09:02:08.783Z,100412.05
2019-04-27T09:04:39.272Z,100412.91
2019-04-27T09:07:25.850Z,100404.36
2019-04-27T09:09:59.648Z,100402.22
2019-04-27T09:12:46.271Z,100404.39
2019-04-27T09:15:25.245Z,100392.00
2019-04-27T09:18:00.641Z,100392.00
2019-04-27T09:20:46.958Z,100396.73
2019-04-27T09:23:15.475Z,100390.72
2019-04-27T09:25:43.883Z,100390.72
2019-04-27T09:28:12.300Z,100385.59
2019-04-27T09:30:40.787Z,100382.60
2019-04-27T09:33:09.365Z,100373.23
2019-04-27T09:35:37.788Z,100379.64
2019-04-27T09:38:07.055Z,100362.52
2019-04-27T09:40:36.041Z,100359.13
2019-04-27T09:43:04.640Z,100361.66
2019-04-27T09:45:33.147Z,100374.06
2019-04-27T09:48:01.545Z,100380.47
2019-04-27T09:50:30.053Z,100402.22
2019-04-27T09:52:58.447Z,100443.77
2019-04-27T09:55:26.921Z,100437.92
2019-04-27T09:57:56.936Z,100438.95
2019-04-27T10:00:27.752Z,100433.72
2019-04-27T10:02:56.542Z,100429.06
2019-04-27T10:05:26.313Z,100433.86
2019-04-27T10:07:56.749Z,100430.53
2019-04-27T10:10:26.727Z,100438.82
2019-04-27T10:12:56.867Z,100441.06
2019-04-27T10:15:26.655Z,100437.67
2019-04-27T10:17:55.999Z,100439.86
2019-04-27T10:20:25.390Z,100432.25
2019-04-27T10:22:53.950Z,100437.43
2019-04-27T10:25:24.073Z,100435.28
2019-04-27T10:27:58.687Z,100438.80
2019-04-27T10:30:27.396Z,100448.11
2019-04-27T10:32:55.826Z,100449.48
2019-04-27T10:35:25.975Z,100446.05
2019-04-27T10:37:54.598Z,100454.90
2019-04-27T10:40:23.135Z,100456.91
2019-04-27T10:42:51.690Z,100459.45
2019-04-27T10:45:20.109Z,100459.44
2019-04-27T10:47:49.641Z,100457.28
2019-04-27T10:50:18.548Z,100444.19
2019-04-27T10:52:53.255Z,100443.81
2019-04-27T10:55:17.286Z,100447.73
2019-04-27T10:57:45.777Z,100448.95
2019-04-27T11:00:16.800Z,100448.61
2019-04-27T11:02:45.362Z,100452.97
2019-04-27T11:05:16.161Z,100455.06
2019-04-27T11:07:46.265Z,100452.92
2019-04-27T11:10:16.314Z,100457.16
2019-04-27T11:12:45.780Z,100460.55
2019-04-27T11:15:16.382Z,100468.67
2019-04-27T11:17:45.821Z,100480.09
2019-04-27T11:20:15.487Z,100481.70
2019-04-27T11:22:44.004Z,100483.30
2019-04-27T11:25:12.840Z,100488.89
2019-04-27T11:27:41.238Z,100490.27
2019-04-27T11:30:10.793Z,100481.22
2019-04-27T11:32:39.359Z,100487.16
2019-04-27T11:35:22.590Z,100487.61
2019-04-27T11:37:52.654Z,100481.65
2019-04-27T11:40:23.100Z,100489.33
2019-04-27T11:42:51.539Z,100480.03
2019-04-27T11:45:20.173Z,100484.63
2019-04-27T11:47:48.671Z,100486.02
2019-04-27T11:50:17.529Z,100487.75
2019-04-27T11:52:45.956Z,100495.01
2019-04-27T11:55:16.167Z,100519.54
2019-04-27T11:57:44.810Z,100519.90
2019-04-27T12:00:18.162Z,100180.66
2019-04-27T12:02:46.577Z,100509.54
2019-04-27T12:05:16.137Z,100504.97
2019-04-27T12:07:47.396Z,100486.30
2019-04-27T12:10:16.459Z,100485.11
2019-04-27T12:12:46.384Z,100475.87
2019-04-27T12:15:16.227Z,100472.55
2019-04-27T12:17:46.115Z,100481.61
2019-04-27T12:20:17.506Z,100479.66
2019-04-27T12:22:45.100Z,100476.39
2019-04-27T12:25:14.783Z,100478.58
2019-04-27T12:27:45.841Z,100467.64
2019-04-27T12:30:26.227Z,100460.91
2019-04-27T12:32:55.769Z,100461.70
2019-04-27T12:35:25.727Z,100463.50
2019-04-27T12:37:55.840Z,100461.13
2019-04-27T12:40:26.684Z,100464.59
2019-04-27T12:42:54.798Z,100463.67
2019-04-27T12:45:23.551Z,100455.14
2019-04-27T12:47:52.085Z,100452.20
2019-04-27T12:50:20.686Z,100454.34
2019-04-27T12:52:50.784Z,100445.09
2019-04-27T12:55:33.123Z,100441.20
2019-04-27T12:58:06.316Z,100435.62
2019-04-27T13:00:39.542Z,100435.73
2019-04-27T13:03:08.091Z,100437.43
2019-04-27T13:05:36.502Z,100432.11
2019-04-27T13:08:04.981Z,100422.61
2019-04-27T13:10:33.404Z,100429.23
2019-04-27T13:13:01.903Z,100425.84
2019-04-27T13:15:30.325Z,100415.83
2019-04-27T13:17:58.823Z,100409.59
2019-04-27T13:20:27.291Z,100410.58
2019-04-27T13:22:55.774Z,100412.56
2019-04-27T13:25:24.207Z,100421.48
2019-04-27T13:27:52.608Z,100423.20
2019-04-27T13:30:21.147Z,100410.45
2019-04-27T13:32:49.599Z,100407.27
2019-04-27T13:35:18.100Z,100412.03
2019-04-27T13:37:46.805Z,100407.86
2019-04-27T13:40:18.454Z,100413.75
2019-04-27T13:42:53.568Z,100423.55
2019-04-27T13:45:26.650Z,100410.27
2019-04-27T13:48:12.746Z,100408.38
2019-04-27T13:50:45.739Z,100424.42
2019-04-27T13:53:14.219Z,100421.20
2019-04-27T13:55:42.635Z,100417.52
2019-04-27T13:58:11.117Z,100413.73
2019-04-27T14:00:39.600Z,100412.09
2019-04-27T14:03:08.131Z,100421.53
2019-04-27T14:05:36.616Z,100422.41
2019-04-27T14:08:05.155Z,100425.88
2019-04-27T14:10:33.577Z,100438.70
2019-04-27T14:13:02.022Z,100427.13
2019-04-27T14:15:30.432Z,100428.02
2019-04-27T14:17:59.229Z,100420.71
2019-04-27T14:20:28.770Z,100415.99
2019-04-27T14:23:03.353Z,100412.58
2019-04-27T14:25:29.025Z,100419.45
2019-04-27T14:27:58.412Z,100413.29
2019-04-27T14:30:26.922Z,100411.74
2019-04-27T14:32:55.338Z,100407.80
2019-04-27T14:35:23.752Z,100413.81
2019-04-27T14:37:52.180Z,100411.81
2019-04-27T14:40:20.599Z,100408.02
2019-04-27T14:42:50.561Z,100406.36
2019-04-27T14:45:19.234Z,100400.66
2019-04-27T14:47:48.191Z,100396.75
2019-04-27T14:50:18.708Z,100394.98
2019-04-27T14:52:48.558Z,100394.52
2019-04-27T14:55:17.144Z,100386.84
2019-04-27T14:57:45.533Z,100388.84
2019-04-27T15:00:15.945Z,100379.34
2019-04-27T15:02:44.429Z,100382.12
2019-04-27T15:05:13.315Z,100387.75
2019-04-27T15:07:41.715Z,100374.45
2019-04-27T15:10:10.979Z,100372.88
2019-04-27T15:12:39.513Z,100392.30
2019-04-27T15:15:08.157Z,100413.39
2019-04-27T15:17:36.945Z,100435.70
2019-04-27T15:20:08.910Z,100425.80
2019-04-27T15:22:40.208Z,100440.28
2019-04-27T15:25:13.697Z,100423.58
2019-04-27T15:27:42.314Z,100437.66
2019-04-27T15:30:19.017Z,100434.64
2019-04-27T15:32:52.404Z,100443.58
2019-04-27T15:35:22.583Z,100445.36
2019-04-27T15:37:55.548Z,100426.61
2019-04-27T15:40:31.410Z,100421.52
2019-04-27T15:43:01.529Z,100426.25
2019-04-27T15:45:30.041Z,100437.41
2019-04-27T15:47:58.496Z,100429.27
2019-04-27T15:50:28.496Z,100430.95
2019-04-27T15:52:57.094Z,100432.22
2019-04-27T15:55:34.506Z,100441.19
2019-04-27T15:57:55.750Z,100441.24
2019-04-27T16:00:26.147Z,100447.68
2019-04-27T16:02:54.626Z,100464.36
2019-04-27T16:05:23.529Z,100473.73
2019-04-27T16:07:53.326Z,100469.00
2019-04-27T16:10:24.674Z,100483.97
2019-04-27T16:13:05.874Z,100484.82
2019-04-27T16:15:23.240Z,100491.63
2019-04-27T16:17:55.855Z,100487.77
2019-04-27T16:20:29.169Z,100491.63
2019-04-27T16:22:52.113Z,100513.84
2019-04-27T16:25:23.620Z,100517.25
2019-04-27T16:27:50.654Z,100518.92
2019-04-27T16:30:20.623Z,100525.75
2019-04-27T16:32:49.358Z,100526.98
2019-04-27T16:35:21.593Z,100536.34
2019-04-27T16:37:52.021Z,100534.57
2019-04-27T16:40:24.351Z,100547.81
2019-04-27T16:42:54.339Z,100538.83
2019-04-27T16:45:22.848Z,100533.18
2019-04-27T16:47:52.123Z,100534.88
2019-04-27T16:50:25.475Z,100538.31
2019-04-27T16:52:57.104Z,100538.30
2019-04-27T16:55:21.502Z,100550.69
2019-04-27T16:57:49.942Z,100544.22
2019-04-27T17:00:22.719Z,100542.45
2019-04-27T17:02:50.015Z,100547.58
2019-04-27T17:05:18.506Z,100546.77
2019-04-27T17:07:46.981Z,100552.30
2019-04-27T17:10:16.273Z,100550.15
2019-04-27T17:12:51.180Z,100550.61
2019-04-27T17:15:41.911Z,100549.77
2019-04-27T17:18:24.289Z,100548.45
2019-04-27T17:20:59.266Z,100552.79
2019-04-27T17:23:29.052Z,100551.13
2019-04-27T17:26:04.446Z,100554.56
2019-04-27T17:28:48.571Z,100564.46
2019-04-27T17:31:21.117Z,100565.66
2019-04-27T17:34:01.836Z,100566.59
2019-04-27T17:36:30.315Z,100568.73
2019-04-27T17:38:58.860Z,100572.58
2019-04-27T17:41:28.322Z,100570.41
2019-04-27T17:43:58.948Z,100579.76
2019-04-27T17:46:28.169Z,100579.75
2019-04-27T17:48:58.577Z,100586.59
2019-04-27T17:51:30.561Z,100586.59
2019-04-27T17:53:58.658Z,100581.88
2019-04-27T17:56:34.022Z,100589.52
2019-04-27T17:58:58.572Z,100596.30
2019-04-27T18:01:30.190Z,100596.69
2019-04-27T18:03:59.999Z,100592.02
2019-04-27T18:06:29.593Z,100592.86
2019-04-27T18:09:00.834Z,100599.28
2019-04-27T18:11:28.737Z,100608.24
2019-04-27T18:14:00.474Z,100612.09
2019-04-27T18:16:30.342Z,100607.81
2019-04-27T18:19:08.053Z,100609.09
2019-04-27T18:21:31.303Z,100612.50
2019-04-27T18:24:04.324Z,100656.66
2019-04-27T18:26:50.105Z,100676.31
2019-04-27T18:29:18.334Z,100681.34
2019-04-27T18:31:53.348Z,100689.43
2019-04-27T18:34:17.394Z,100700.68
2019-04-27T18:36:47.000Z,100704.19
2019-04-27T18:39:15.410Z,100704.47
2019-04-27T18:41:49.176Z,100700.22
2019-04-27T18:44:14.042Z,100696.66
2019-04-27T18:46:42.472Z,100693.14
2019-04-27T18:49:22.560Z,100698.95
2019-04-27T18:51:57.812Z,100709.20
2019-04-27T18:54:23.430Z,100702.92
2019-04-27T18:57:02.230Z,100700.11
2019-04-27T18:59:21.989Z,100705.83
2019-04-27T19:01:50.474Z,100704.80
2019-04-27T19:04:19.060Z,100709.16
2019-04-27T19:06:47.429Z,100703.80
2019-04-27T19:09:18.629Z,100705.71
2019-04-27T19:11:55.810Z,100712.20
2019-04-27T19:14:18.879Z,100710.98
2019-04-27T19:16:48.433Z,100709.38
2019-04-27T19:19:18.815Z,100346.14
2019-04-27T19:21:48.597Z,100715.36
2019-04-27T19:24:19.061Z,100712.82
2019-04-27T19:26:49.072Z,100716.67
2019-04-27T19:29:24.870Z,100726.48
2019-04-27T19:31:58.624Z,100727.70
2019-04-27T19:34:28.638Z,100730.24
2019-04-27T19:36:59.049Z,100737.08
2019-04-27T19:39:28.605Z,100734.09
2019-04-27T19:42:01.391Z,100737.94
2019-04-27T19:44:29.156Z,100739.21
2019-04-27T19:46:59.981Z,100740.95
2019-04-27T19:49:31.235Z,100745.20
2019-04-27T19:51:58.853Z,100740.45
2019-04-27T19:54:29.890Z,100751.54
2019-04-27T19:56:59.521Z,100749.69
2019-04-27T19:59:29.536Z,100748.38
2019-04-27T20:01:59.615Z,100749.70
2019-04-27T20:04:30.735Z,100754.44
2019-04-27T20:06:59.390Z,100750.97
2019-04-27T20:09:35.554Z,100759.41
2019-04-27T20:12:05.223Z,100756.02
2019-04-27T20:14:35.880Z,100757.72
2019-04-27T20:17:04.449Z,100757.30
2019-04-27T20:19:32.883Z,100764.11
2019-04-27T20:22:01.309Z,100762.83
2019-04-27T20:24:31.400Z,100768.34
2019-04-27T20:27:00.656Z,100764.43
2019-04-27T20:29:31.682Z,100767.90
2019-04-27T20:32:01.192Z,100766.66
2019-04-27T20:34:31.093Z,100769.23
2019-04-27T20:37:01.298Z,100772.57
2019-04-27T20:39:30.081Z,100774.22
2019-04-27T20:41:58.512Z,100772.98
2019-04-27T20:44:26.969Z,100772.61
2019-04-27T20:46:55.498Z,100778.61
2019-04-27T20:49:23.952Z,100778.20
2019-04-27T20:52:06.234Z,100774.77
2019-04-27T20:54:34.678Z,100782.04
2019-04-27T20:57:03.107Z,100784.12
2019-04-27T20:59:31.588Z,100776.45
2019-04-27T21:02:01.742Z,100779.50
2019-04-27T21:04:41.880Z,100777.44
2019-04-27T21:07:11.927Z,100779.64
2019-04-27T21:09:41.435Z,100781.69
2019-04-27T21:12:09.950Z,100772.23
2019-04-27T21:14:38.386Z,100780.52
2019-04-27T21:17:06.831Z,100780.91
2019-04-27T21:19:35.235Z,100773.08
2019-04-27T21:22:16.555Z,100781.98
2019-04-27T21:24:44.976Z,100779.03
2019-04-27T21:27:13.450Z,100782.59
2019-04-27T21:29:42.115Z,100783.89
2019-04-27T21:32:11.143Z,100782.23
2019-04-27T21:34:41.328Z,100787.00
2019-04-27T21:37:11.072Z,100790.92
2019-04-27T21:39:39.537Z,100791.34
2019-04-27T21:42:07.958Z,100788.83
2019-04-27T21:44:36.382Z,100793.08
2019-04-27T21:47:04.784Z,100791.78
2019-04-27T21:49:33.240Z,100791.77
2019-04-27T21:52:03.384Z,100789.09
2019-04-27T21:54:41.034Z,100791.20
2019-04-27T21:57:11.018Z,100794.62
2019-04-27T21:59:39.685Z,100795.06
2019-04-27T22:02:11.977Z,100797.59
2019-04-27T22:04:41.663Z,100799.24
2019-04-27T22:07:11.549Z,100800.52
2019-04-27T22:09:43.069Z,100802.68
2019-04-27T22:12:11.232Z,100803.38
2019-04-27T22:14:39.722Z,100807.72
2019-04-27T22:17:08.195Z,100806.80
2019-04-27T22:19:36.684Z,100807.28
2019-04-27T22:22:06.898Z,100811.95
2019-04-27T22:24:37.069Z,100808.49
2019-04-27T22:27:05.593Z,100806.42
2019-04-27T22:29:34.092Z,100811.14
2019-04-27T22:32:02.691Z,100812.00
2019-04-27T22:34:31.361Z,100819.30
2019-04-27T22:37:02.297Z,100817.97
2019-04-27T22:39:34.448Z,100825.17
2019-04-27T22:42:23.124Z,100823.08
2019-04-27T22:44:52.853Z,100821.31
2019-04-27T22:47:21.614Z,100822.16
2019-04-27T22:49:50.142Z,100825.59
2019-04-27T22:52:18.589Z,100822.99
2019-04-27T22:54:47.039Z,100819.94
2019-04-27T22:57:17.103Z,100825.16
2019-04-27T22:59:52.610Z,100829.82
2019-04-27T23:02:22.651Z,100829.41
2019-04-27T23:05:02.461Z,100828.55
2019-04-27T23:07:31.558Z,100828.98
2019-04-27T23:10:01.548Z,100832.69
2019-04-27T23:12:31.711Z,100833.08
2019-04-27T23:15:00.326Z,100830.92
2019-04-27T23:17:41.490Z,100834.27
2019-04-27T23:20:11.475Z,100828.69
2019-04-27T23:22:40.088Z,100827.06
2019-04-27T23:25:08.649Z,100831.75
2019-04-27T23:27:37.074Z,100829.20
2019-04-27T23:30:06.823Z,100839.91
2019-04-27T23:32:37.861Z,100831.83
2019-04-27T23:35:07.195Z,100833.03
2019-04-27T23:37:35.608Z,100833.52
2019-04-27T23:40:06.045Z,100837.75
2019-04-27T23:42:34.625Z,100833.89
2019-04-27T23:45:03.211Z,100835.14
2019-04-27T23:47:31.616Z,100836.45
2019-04-27T23:50:00.860Z,100831.70
2019-04-27T23:52:47.667Z,100833.43
2019-04-27T23:55:16.261Z,100837.27
2019-04-27T23:57:44.761Z,100832.96
